sensor_id;sensor_type;location;lat;lon;timestamp;pressure;altitude;pressure_sealevel;temperature;humidity
50302;BME280;36550;50.472;19.744;2023-05-13T00:02:39;98534.70;;;6.51;61.65
50302;BME280;36550;50.472;19.744;2023-05-13T00:06:23;98532.75;;;6.52;61.68
50302;BME280;36550;50.472;19.744;2023-05-13T00:10:07;98534.93;;;6.57;61.97
50302;BME280;36550;50.472;19.744;2023-05-13T00:13:51;98537.32;;;6.63;62.09
50302;BME280;36550;50.472;19.744;2023-05-13T00:17:34;98545.13;;;6.68;62.25
50302;BME280;36550;50.472;19.744;2023-05-13T00:21:18;98547.19;;;6.71;62.42
50302;BME280;36550;50.472;19.744;2023-05-13T00:24:42;98548.02;;;6.72;62.38
50302;BME280;36550;50.472;19.744;2023-05-13T00:27:46;98546.56;;;6.70;62.38
50302;BME280;36550;50.472;19.744;2023-05-13T00:31:11;98547.52;;;6.67;62.43
50302;BME280;36550;50.472;19.744;2023-05-13T00:34:55;98542.38;;;6.62;62.28
50302;BME280;36550;50.472;19.744;2023-05-13T00:38:39;98544.76;;;6.38;61.48
50302;BME280;36550;50.472;19.744;2023-05-13T00:42:02;98545.66;;;6.09;61.18
50302;BME280;36550;50.472;19.744;2023-05-13T00:45:46;98544.13;;;5.93;61.65
50302;BME280;36550;50.472;19.744;2023-05-13T00:48:59;98543.93;;;5.88;61.94
50302;BME280;36550;50.472;19.744;2023-05-13T00:52:43;98549.41;;;5.85;62.24
50302;BME280;36550;50.472;19.744;2023-05-13T00:56:27;98554.70;;;5.91;62.65
50302;BME280;36550;50.472;19.744;2023-05-13T01:00:11;98551.52;;;5.97;62.87
50302;BME280;36550;50.472;19.744;2023-05-13T01:11:35;98554.54;;;5.69;62.45
50302;BME280;36550;50.472;19.744;2023-05-13T01:15:25;98559.66;;;5.53;62.32
50302;BME280;36550;50.472;19.744;2023-05-13T01:18:42;98561.33;;;5.42;62.53
50302;BME280;36550;50.472;19.744;2023-05-13T01:22:05;98565.98;;;5.34;62.62
50302;BME280;36550;50.472;19.744;2023-05-13T01:25:49;98568.20;;;5.27;62.88
50302;BME280;36550;50.472;19.744;2023-05-13T01:28:57;98569.41;;;5.15;62.81
50302;BME280;36550;50.472;19.744;2023-05-13T01:32:41;98572.88;;;5.08;63.12
50302;BME280;36550;50.472;19.744;2023-05-13T01:35:50;98578.64;;;5.09;63.37
50302;BME280;36550;50.472;19.744;2023-05-13T01:38:55;98577.23;;;5.14;63.60
50302;BME280;36550;50.472;19.744;2023-05-13T01:42:39;98577.80;;;5.17;63.90
50302;BME280;36550;50.472;19.744;2023-05-13T01:45:51;98584.38;;;5.19;63.99
50302;BME280;36550;50.472;19.744;2023-05-13T01:48:55;98583.88;;;5.16;63.92
50302;BME280;36550;50.472;19.744;2023-05-13T01:52:39;98578.23;;;5.12;63.98
50302;BME280;36550;50.472;19.744;2023-05-13T01:56:23;98571.43;;;5.05;63.81
50302;BME280;36550;50.472;19.744;2023-05-13T01:59:54;98575.16;;;4.94;63.69
50302;BME280;36550;50.472;19.744;2023-05-13T02:03:38;98574.14;;;4.86;63.80
50302;BME280;36550;50.472;19.744;2023-05-13T02:07:11;98576.18;;;4.85;64.27
50302;BME280;36550;50.472;19.744;2023-05-13T02:10:55;98573.83;;;4.86;64.68
50302;BME280;36550;50.472;19.744;2023-05-13T02:14:38;98582.21;;;4.80;64.67
50302;BME280;36550;50.472;19.744;2023-05-13T02:18:23;98582.16;;;4.68;64.53
50302;BME280;36550;50.472;19.744;2023-05-13T02:22:07;98576.48;;;4.65;64.71
50302;BME280;36550;50.472;19.744;2023-05-13T02:25:10;98582.52;;;4.65;64.94
50302;BME280;36550;50.472;19.744;2023-05-13T02:28:14;98583.34;;;4.64;64.97
50302;BME280;36550;50.472;19.744;2023-05-13T02:31:58;98580.34;;;4.61;65.31
50302;BME280;36550;50.472;19.744;2023-05-13T02:35:42;98587.91;;;4.68;65.65
50302;BME280;36550;50.472;19.744;2023-05-13T02:39:00;98586.21;;;4.73;65.82
50302;BME280;36550;50.472;19.744;2023-05-13T02:42:44;98588.16;;;4.79;65.95
50302;BME280;36550;50.472;19.744;2023-05-13T02:46:28;98592.04;;;4.86;66.06
50302;BME280;36550;50.472;19.744;2023-05-13T02:50:12;98593.36;;;4.93;66.06
50302;BME280;36550;50.472;19.744;2023-05-13T02:53:56;98598.71;;;5.04;66.04
50302;BME280;36550;50.472;19.744;2023-05-13T02:57:40;98603.54;;;5.13;66.12
50302;BME280;36550;50.472;19.744;2023-05-13T03:01:05;98605.40;;;5.22;66.44
50302;BME280;36550;50.472;19.744;2023-05-13T03:04:16;98598.48;;;5.33;66.58
50302;BME280;36550;50.472;19.744;2023-05-13T03:07:40;98600.31;;;5.44;66.71
50302;BME280;36550;50.472;19.744;2023-05-13T03:11:18;98598.43;;;5.58;66.93
50302;BME280;36550;50.472;19.744;2023-05-13T03:15:02;98597.83;;;5.72;67.15
50302;BME280;36550;50.472;19.744;2023-05-13T03:18:34;98601.52;;;5.78;66.76
50302;BME280;36550;50.472;19.744;2023-05-13T03:22:17;98600.16;;;5.79;66.54
50302;BME280;36550;50.472;19.744;2023-05-13T03:25:36;98598.64;;;5.89;66.69
50302;BME280;36550;50.472;19.744;2023-05-13T03:28:34;98599.87;;;5.99;66.72
50302;BME280;36550;50.472;19.744;2023-05-13T03:31:18;98605.24;;;6.07;66.87
50302;BME280;36550;50.472;19.744;2023-05-13T03:34:02;98613.98;;;6.16;66.94
50302;BME280;36550;50.472;19.744;2023-05-13T03:37:07;98615.55;;;6.24;67.13
50302;BME280;36550;50.472;19.744;2023-05-13T03:40:50;98612.02;;;6.39;67.16
50302;BME280;36550;50.472;19.744;2023-05-13T03:44:09;98614.64;;;6.56;67.43
50302;BME280;36550;50.472;19.744;2023-05-13T03:47:13;98620.41;;;6.74;67.68
50302;BME280;36550;50.472;19.744;2023-05-13T03:50:37;98618.48;;;7.02;67.62
50302;BME280;36550;50.472;19.744;2023-05-13T03:54:21;98630.85;;;7.29;67.48
50302;BME280;36550;50.472;19.744;2023-05-13T03:57:32;98632.21;;;7.55;67.29
50302;BME280;36550;50.472;19.744;2023-05-13T04:00:56;98637.46;;;7.83;67.29
50302;BME280;36550;50.472;19.744;2023-05-13T04:03:47;98638.34;;;8.15;67.30
50302;BME280;36550;50.472;19.744;2023-05-13T04:06:53;98647.77;;;8.44;67.27
50302;BME280;36550;50.472;19.744;2023-05-13T04:10:19;98646.98;;;8.84;67.05
50302;BME280;36550;50.472;19.744;2023-05-13T04:14:03;98647.40;;;9.12;66.62
50302;BME280;36550;50.472;19.744;2023-05-13T04:17:47;98651.35;;;9.34;66.27
50302;BME280;36550;50.472;19.744;2023-05-13T04:21:11;98650.13;;;9.51;65.98
50302;BME280;36550;50.472;19.744;2023-05-13T04:24:55;98652.84;;;9.55;65.74
50302;BME280;36550;50.472;19.744;2023-05-13T04:28:39;98651.56;;;9.58;65.38
50302;BME280;36550;50.472;19.744;2023-05-13T04:32:22;98652.92;;;9.65;65.38
50302;BME280;36550;50.472;19.744;2023-05-13T04:35:27;98658.00;;;9.78;65.51
50302;BME280;36550;50.472;19.744;2023-05-13T04:38:31;98660.39;;;9.93;65.33
50302;BME280;36550;50.472;19.744;2023-05-13T04:41:55;98661.13;;;10.06;65.36
50302;BME280;36550;50.472;19.744;2023-05-13T04:45:39;98662.05;;;10.35;65.30
50302;BME280;36550;50.472;19.744;2023-05-13T04:48:34;98663.47;;;10.70;65.23
50302;BME280;36550;50.472;19.744;2023-05-13T04:51:38;98669.54;;;11.05;65.22
50302;BME280;36550;50.472;19.744;2023-05-13T04:55:09;98669.56;;;11.45;65.22
50302;BME280;36550;50.472;19.744;2023-05-13T04:58:14;98676.11;;;11.92;64.86
50302;BME280;36550;50.472;19.744;2023-05-13T05:01:58;98671.84;;;12.32;64.39
50302;BME280;36550;50.472;19.744;2023-05-13T05:05:22;98674.30;;;12.71;63.93
50302;BME280;36550;50.472;19.744;2023-05-13T05:08:26;98680.60;;;13.03;63.50
50302;BME280;36550;50.472;19.744;2023-05-13T05:11:33;98670.57;;;13.16;62.89
50302;BME280;36550;50.472;19.744;2023-05-13T05:15:18;98676.98;;;13.18;62.42
50302;BME280;36550;50.472;19.744;2023-05-13T05:18:42;98682.89;;;13.21;62.08
50302;BME280;36550;50.472;19.744;2023-05-13T05:22:06;98683.24;;;13.23;61.74
50302;BME280;36550;50.472;19.744;2023-05-13T05:24:50;98685.70;;;13.19;61.54
50302;BME280;36550;50.472;19.744;2023-05-13T05:27:34;98683.36;;;13.23;61.37
50302;BME280;36550;50.472;19.744;2023-05-13T05:30:18;98684.98;;;13.38;61.30
50302;BME280;36550;50.472;19.744;2023-05-13T05:33:02;98689.44;;;13.79;61.50
50302;BME280;36550;50.472;19.744;2023-05-13T05:35:46;98689.53;;;14.14;60.25
50302;BME280;36550;50.472;19.744;2023-05-13T05:38:30;98690.27;;;14.38;59.22
50302;BME280;36550;50.472;19.744;2023-05-13T05:41:34;98689.44;;;14.65;58.44
50302;BME280;36550;50.472;19.744;2023-05-13T05:44:58;98691.23;;;14.89;58.09
50302;BME280;36550;50.472;19.744;2023-05-13T05:48:42;98693.56;;;15.07;57.33
50302;BME280;36550;50.472;19.744;2023-05-13T05:52:25;98691.98;;;15.21;57.90
50302;BME280;36550;50.472;19.744;2023-05-13T05:55:51;98696.53;;;15.32;57.33
50302;BME280;36550;50.472;19.744;2023-05-13T05:58:37;98698.14;;;15.33;56.68
50302;BME280;36550;50.472;19.744;2023-05-13T06:01:21;98698.64;;;15.35;56.27
50302;BME280;36550;50.472;19.744;2023-05-13T06:04:05;98698.15;;;15.39;56.67
50302;BME280;36550;50.472;19.744;2023-05-13T06:07:10;98698.74;;;15.51;56.45
50302;BME280;36550;50.472;19.744;2023-05-13T06:10:41;98698.79;;;15.55;56.38
50302;BME280;36550;50.472;19.744;2023-05-13T06:14:25;98701.58;;;15.64;55.86
50302;BME280;36550;50.472;19.744;2023-05-13T06:18:08;98700.35;;;15.53;55.77
50302;BME280;36550;50.472;19.744;2023-05-13T06:21:52;98704.35;;;15.70;56.05
50302;BME280;36550;50.472;19.744;2023-05-13T06:25:36;98701.56;;;15.76;55.35
50302;BME280;36550;50.472;19.744;2023-05-13T06:28:35;98703.40;;;15.80;55.48
50302;BME280;36550;50.472;19.744;2023-05-13T06:31:19;98702.89;;;15.88;55.20
50302;BME280;36550;50.472;19.744;2023-05-13T06:35:04;98707.30;;;15.97;55.00
50302;BME280;36550;50.472;19.744;2023-05-13T06:38:28;98707.06;;;16.01;54.65
50302;BME280;36550;50.472;19.744;2023-05-13T06:41:12;98708.40;;;16.09;53.89
50302;BME280;36550;50.472;19.744;2023-05-13T06:43:56;98706.45;;;16.16;52.87
50302;BME280;36550;50.472;19.744;2023-05-13T06:46:59;98709.65;;;16.18;52.98
50302;BME280;36550;50.472;19.744;2023-05-13T06:50:43;98713.35;;;16.40;53.00
50302;BME280;36550;50.472;19.744;2023-05-13T06:54:07;98715.42;;;16.50;51.70
50302;BME280;36550;50.472;19.744;2023-05-13T06:57:18;98707.90;;;16.59;51.80
50302;BME280;36550;50.472;19.744;2023-05-13T07:00:42;98708.23;;;16.60;51.49
50302;BME280;36550;50.472;19.744;2023-05-13T07:03:29;98707.36;;;16.67;51.72
50302;BME280;36550;50.472;19.744;2023-05-13T07:06:33;98711.06;;;16.76;51.32
50302;BME280;36550;50.472;19.744;2023-05-13T07:09:56;98708.16;;;16.79;51.01
50302;BME280;36550;50.472;19.744;2023-05-13T07:13:40;98713.31;;;16.79;50.41
50302;BME280;36550;50.472;19.744;2023-05-13T07:17:24;98712.02;;;16.90;50.96
50302;BME280;36550;50.472;19.744;2023-05-13T07:20:48;98717.91;;;17.04;49.60
50302;BME280;36550;50.472;19.744;2023-05-13T07:23:32;98715.30;;;17.04;50.14
50302;BME280;36550;50.472;19.744;2023-05-13T07:27:16;98712.63;;;17.12;50.32
50302;BME280;36550;50.472;19.744;2023-05-13T07:31:00;98711.25;;;17.13;50.09
50302;BME280;36550;50.472;19.744;2023-05-13T07:34:44;98711.98;;;17.07;49.86
50302;BME280;36550;50.472;19.744;2023-05-13T07:38:28;98710.29;;;17.10;50.10
50302;BME280;36550;50.472;19.744;2023-05-13T07:42:13;98708.53;;;17.07;49.88
50302;BME280;36550;50.472;19.744;2023-05-13T07:45:57;98709.80;;;17.04;49.20
50302;BME280;36550;50.472;19.744;2023-05-13T07:49:01;98709.33;;;16.93;48.34
50302;BME280;36550;50.472;19.744;2023-05-13T07:52:45;98705.30;;;16.83;48.64
50302;BME280;36550;50.472;19.744;2023-05-13T07:56:29;98703.45;;;16.77;48.80
50302;BME280;36550;50.472;19.744;2023-05-13T08:00:13;98706.08;;;16.75;48.52
50302;BME280;36550;50.472;19.744;2023-05-13T08:03:57;98701.41;;;16.74;48.95
50302;BME280;36550;50.472;19.744;2023-05-13T08:07:41;98704.34;;;16.79;49.00
50302;BME280;36550;50.472;19.744;2023-05-13T08:11:25;98702.34;;;16.80;48.64
50302;BME280;36550;50.472;19.744;2023-05-13T08:15:09;98708.29;;;16.71;48.04
50302;BME280;36550;50.472;19.744;2023-05-13T08:18:53;98709.06;;;16.85;47.87
50302;BME280;36550;50.472;19.744;2023-05-13T08:22:37;98704.23;;;17.23;47.13
50302;BME280;36550;50.472;19.744;2023-05-13T08:26:21;98698.05;;;17.80;46.57
50302;BME280;36550;50.472;19.744;2023-05-13T08:30:05;98696.66;;;18.37;45.78
50302;BME280;36550;50.472;19.744;2023-05-13T08:33:49;98696.75;;;18.73;44.65
50302;BME280;36550;50.472;19.744;2023-05-13T08:36:57;98703.25;;;18.95;44.21
50302;BME280;36550;50.472;19.744;2023-05-13T08:40:40;98697.13;;;19.09;43.94
50302;BME280;36550;50.472;19.744;2023-05-13T08:44:06;98696.64;;;18.95;42.95
50302;BME280;36550;50.472;19.744;2023-05-13T08:47:49;98693.98;;;18.75;42.91
50302;BME280;36550;50.472;19.744;2023-05-13T08:51:13;98693.84;;;18.46;42.48
50302;BME280;36550;50.472;19.744;2023-05-13T08:54:44;98696.84;;;18.27;41.51
50302;BME280;36550;50.472;19.744;2023-05-13T08:57:49;98695.68;;;18.15;41.72
50302;BME280;36550;50.472;19.744;2023-05-13T09:01:32;98690.05;;;18.00;42.31
50302;BME280;36550;50.472;19.744;2023-05-13T09:05:16;98687.09;;;17.87;42.99
50302;BME280;36550;50.472;19.744;2023-05-13T09:08:54;98688.63;;;17.77;43.28
50302;BME280;36550;50.472;19.744;2023-05-13T09:15:59;98689.40;;;17.47;42.87
50302;BME280;36550;50.472;19.744;2023-05-13T09:19:05;98685.83;;;17.42;43.14
50302;BME280;36550;50.472;19.744;2023-05-13T09:22:50;98683.59;;;17.37;43.34
50302;BME280;36550;50.472;19.744;2023-05-13T09:26:26;98680.08;;;17.36;43.32
50302;BME280;36550;50.472;19.744;2023-05-13T09:29:25;98682.46;;;17.34;42.71
50302;BME280;36550;50.472;19.744;2023-05-13T09:32:32;98674.27;;;17.28;42.47
50302;BME280;36550;50.472;19.744;2023-05-13T09:35:51;98669.33;;;17.23;43.06
50302;BME280;36550;50.472;19.744;2023-05-13T09:38:43;98668.88;;;17.25;42.85
50302;BME280;36550;50.472;19.744;2023-05-13T09:41:27;98671.14;;;17.23;42.91
50302;BME280;36550;50.472;19.744;2023-05-13T09:44:13;98671.72;;;17.25;43.30
50302;BME280;36550;50.472;19.744;2023-05-13T09:47:00;98673.02;;;17.30;43.35
50302;BME280;36550;50.472;19.744;2023-05-13T09:50:24;98666.49;;;17.32;42.99
50302;BME280;36550;50.472;19.744;2023-05-13T09:54:08;98656.24;;;17.31;43.17
50302;BME280;36550;50.472;19.744;2023-05-13T09:57:16;98659.27;;;17.30;43.18
50302;BME280;36550;50.472;19.744;2023-05-13T10:01:00;98656.48;;;17.36;43.09
50302;BME280;36550;50.472;19.744;2023-05-13T10:04:44;98656.74;;;17.39;42.10
50302;BME280;36550;50.472;19.744;2023-05-13T10:08:11;98654.71;;;17.37;41.56
50302;BME280;36550;50.472;19.744;2023-05-13T10:11:55;98647.88;;;17.36;41.58
50302;BME280;36550;50.472;19.744;2023-05-13T10:15:52;98643.10;;;17.36;41.72
50302;BME280;36550;50.472;19.744;2023-05-13T10:19:35;98638.36;;;17.30;41.06
50302;BME280;36550;50.472;19.744;2023-05-13T10:23:19;98638.79;;;17.31;40.53
50302;BME280;36550;50.472;19.744;2023-05-13T10:27:03;98632.55;;;17.45;41.17
50302;BME280;36550;50.472;19.744;2023-05-13T10:30:31;98634.91;;;17.77;39.91
50302;BME280;36550;50.472;19.744;2023-05-13T10:33:35;98630.83;;;18.03;38.99
50302;BME280;36550;50.472;19.744;2023-05-13T10:36:46;98628.21;;;18.07;38.97
50302;BME280;36550;50.472;19.744;2023-05-13T10:40:17;98634.59;;;18.13;38.93
50302;BME280;36550;50.472;19.744;2023-05-13T10:43:57;98629.32;;;18.16;39.39
50302;BME280;36550;50.472;19.744;2023-05-13T10:47:02;98632.96;;;18.29;39.50
50302;BME280;36550;50.472;19.744;2023-05-13T10:49:50;98633.23;;;18.44;38.55
50302;BME280;36550;50.472;19.744;2023-05-13T10:52:48;98643.08;;;18.61;37.84
50302;BME280;36550;50.472;19.744;2023-05-13T10:55:39;98627.87;;;18.79;37.11
50302;BME280;36550;50.472;19.744;2023-05-13T10:58:30;98629.27;;;18.91;37.13
50302;BME280;36550;50.472;19.744;2023-05-13T11:02:20;98622.69;;;19.07;36.88
50302;BME280;36550;50.472;19.744;2023-05-13T11:05:24;98620.52;;;19.40;36.80
50302;BME280;36550;50.472;19.744;2023-05-13T11:08:37;98625.74;;;19.61;36.22
50302;BME280;36550;50.472;19.744;2023-05-13T11:11:24;98619.02;;;19.71;35.51
50302;BME280;36550;50.472;19.744;2023-05-13T11:14:24;98619.62;;;19.85;35.25
50302;BME280;36550;50.472;19.744;2023-05-13T11:17:10;98622.02;;;20.02;35.63
50302;BME280;36550;50.472;19.744;2023-05-13T11:19:55;98620.96;;;20.06;35.60
50302;BME280;36550;50.472;19.744;2023-05-13T11:22:40;98621.36;;;19.92;35.67
50302;BME280;36550;50.472;19.744;2023-05-13T11:25:25;98628.50;;;19.71;35.38
50302;BME280;36550;50.472;19.744;2023-05-13T11:28:14;98620.63;;;19.61;35.66
50302;BME280;36550;50.472;19.744;2023-05-13T11:31:14;98621.35;;;19.67;34.94
50302;BME280;36550;50.472;19.744;2023-05-13T11:34:13;98624.30;;;19.80;35.23
50302;BME280;36550;50.472;19.744;2023-05-13T11:39:47;98624.76;;;20.16;35.45
50302;BME280;36550;50.472;19.744;2023-05-13T11:42:31;98622.98;;;20.29;34.66
50302;BME280;36550;50.472;19.744;2023-05-13T11:45:21;98623.30;;;20.33;34.59
50302;BME280;36550;50.472;19.744;2023-05-13T11:48:21;98631.96;;;20.30;34.87
50302;BME280;36550;50.472;19.744;2023-05-13T11:51:05;98632.60;;;20.21;35.43
50302;BME280;36550;50.472;19.744;2023-05-13T11:54:02;98632.42;;;20.18;35.61
50302;BME280;36550;50.472;19.744;2023-05-13T11:56:46;98627.09;;;20.23;35.35
50302;BME280;36550;50.472;19.744;2023-05-13T11:59:30;98628.70;;;20.21;35.26
50302;BME280;36550;50.472;19.744;2023-05-13T12:02:14;98626.90;;;20.15;34.62
50302;BME280;36550;50.472;19.744;2023-05-13T12:04:59;98627.50;;;20.14;34.52
50302;BME280;36550;50.472;19.744;2023-05-13T12:07:44;98638.96;;;20.19;34.19
50302;BME280;36550;50.472;19.744;2023-05-13T12:10:28;98638.28;;;20.12;33.77
50302;BME280;36550;50.472;19.744;2023-05-13T12:13:12;98633.33;;;20.06;34.18
50302;BME280;36550;50.472;19.744;2023-05-13T12:15:56;98626.98;;;20.06;34.38
50302;BME280;36550;50.472;19.744;2023-05-13T12:18:40;98632.43;;;20.06;33.75
50302;BME280;36550;50.472;19.744;2023-05-13T12:21:24;98626.44;;;20.07;34.34
50302;BME280;36550;50.472;19.744;2023-05-13T12:24:24;98628.27;;;20.18;34.34
50302;BME280;36550;50.472;19.744;2023-05-13T12:27:10;98626.16;;;20.36;33.49
50302;BME280;36550;50.472;19.744;2023-05-13T12:29:54;98624.56;;;20.50;34.16
50302;BME280;36550;50.472;19.744;2023-05-13T12:32:44;98625.61;;;20.63;34.26
50302;BME280;36550;50.472;19.744;2023-05-13T12:35:28;98628.98;;;20.77;34.58
50302;BME280;36550;50.472;19.744;2023-05-13T12:38:20;98634.08;;;20.86;33.31
50302;BME280;36550;50.472;19.744;2023-05-13T12:41:11;98628.80;;;20.91;33.72
50302;BME280;36550;50.472;19.744;2023-05-13T12:44:00;98632.58;;;21.03;33.49
50302;BME280;36550;50.472;19.744;2023-05-13T12:46:51;98626.29;;;21.18;33.87
50302;BME280;36550;50.472;19.744;2023-05-13T12:49:56;98631.05;;;21.44;33.62
50302;BME280;36550;50.472;19.744;2023-05-13T12:52:41;98622.89;;;21.58;32.43
50302;BME280;36550;50.472;19.744;2023-05-13T12:55:25;98627.13;;;21.61;32.66
50302;BME280;36550;50.472;19.744;2023-05-13T12:58:11;98631.84;;;21.57;32.17
50302;BME280;36550;50.472;19.744;2023-05-13T13:00:55;98629.13;;;21.53;32.05
50302;BME280;36550;50.472;19.744;2023-05-13T13:03:39;98629.30;;;21.62;32.20
50302;BME280;36550;50.472;19.744;2023-05-13T13:06:23;98623.32;;;21.75;32.02
50302;BME280;36550;50.472;19.744;2023-05-13T13:09:07;98621.99;;;21.93;32.28
50302;BME280;36550;50.472;19.744;2023-05-13T13:11:51;98627.73;;;22.12;32.52
50302;BME280;36550;50.472;19.744;2023-05-13T13:14:56;98628.27;;;22.23;32.22
50302;BME280;36550;50.472;19.744;2023-05-13T13:18:20;98629.86;;;22.18;32.14
50302;BME280;36550;50.472;19.744;2023-05-13T13:21:26;98626.77;;;22.11;31.72
50302;BME280;36550;50.472;19.744;2023-05-13T13:24:50;98627.26;;;22.08;32.29
50302;BME280;36550;50.472;19.744;2023-05-13T13:28:28;98633.98;;;22.01;32.07
50302;BME280;36550;50.472;19.744;2023-05-13T13:31:37;98634.61;;;21.96;32.18
50302;BME280;36550;50.472;19.744;2023-05-13T13:34:55;98635.70;;;21.95;32.56
50302;BME280;36550;50.472;19.744;2023-05-13T13:38:19;98634.70;;;21.91;32.53
50302;BME280;36550;50.472;19.744;2023-05-13T13:41:24;98628.70;;;21.96;32.53
50302;BME280;36550;50.472;19.744;2023-05-13T13:45:08;98623.56;;;21.89;32.49
50302;BME280;36550;50.472;19.744;2023-05-13T13:48:13;98623.91;;;21.78;31.97
50302;BME280;36550;50.472;19.744;2023-05-13T13:51:30;98625.00;;;21.63;32.39
50302;BME280;36550;50.472;19.744;2023-05-13T13:54:55;98625.22;;;21.57;32.16
50302;BME280;36550;50.472;19.744;2023-05-13T13:58:33;98622.11;;;21.50;32.40
50302;BME280;36550;50.472;19.744;2023-05-13T14:01:37;98626.97;;;21.50;32.52
50302;BME280;36550;50.472;19.744;2023-05-13T14:04:26;98626.58;;;21.39;32.39
50302;BME280;36550;50.472;19.744;2023-05-13T14:08:10;98628.52;;;21.16;32.58
50302;BME280;36550;50.472;19.744;2023-05-13T14:11:14;98626.89;;;21.02;33.39
50302;BME280;36550;50.472;19.744;2023-05-13T14:13:58;98624.48;;;20.91;33.75
50302;BME280;36550;50.472;19.744;2023-05-13T14:17:02;98628.08;;;20.84;34.28
50302;BME280;36550;50.472;19.744;2023-05-13T14:20:26;98627.01;;;20.77;34.20
50302;BME280;36550;50.472;19.744;2023-05-13T14:23:39;98627.98;;;20.60;34.37
50302;BME280;36550;50.472;19.744;2023-05-13T14:26:39;98627.48;;;20.62;34.44
50302;BME280;36550;50.472;19.744;2023-05-13T14:29:45;98625.56;;;20.73;34.11
50302;BME280;36550;50.472;19.744;2023-05-13T14:33:29;98625.70;;;20.74;33.88
50302;BME280;36550;50.472;19.744;2023-05-13T14:36:18;98627.64;;;20.56;34.51
50302;BME280;36550;50.472;19.744;2023-05-13T14:39:42;98628.48;;;20.37;34.82
50302;BME280;36550;50.472;19.744;2023-05-13T14:43:06;98628.45;;;19.99;34.95
50302;BME280;36550;50.472;19.744;2023-05-13T14:46:32;98627.55;;;19.61;35.62
50302;BME280;36550;50.472;19.744;2023-05-13T14:50:15;98622.06;;;19.33;36.13
50302;BME280;36550;50.472;19.744;2023-05-13T14:53:40;98618.68;;;19.20;36.54
50302;BME280;36550;50.472;19.744;2023-05-13T14:57:18;98619.98;;;18.97;36.58
50302;BME280;36550;50.472;19.744;2023-05-13T15:00:43;98623.16;;;18.87;37.21
50302;BME280;36550;50.472;19.744;2023-05-13T15:04:27;98627.98;;;18.73;37.52
50302;BME280;36550;50.472;19.744;2023-05-13T15:07:51;98627.67;;;18.59;37.05
50302;BME280;36550;50.472;19.744;2023-05-13T15:10:35;98628.83;;;18.62;37.07
50302;BME280;36550;50.472;19.744;2023-05-13T15:13:19;98623.73;;;18.74;37.38
50302;BME280;36550;50.472;19.744;2023-05-13T15:16:23;98625.86;;;18.83;37.85
50302;BME280;36550;50.472;19.744;2023-05-13T15:20:07;98626.06;;;18.61;37.98
50302;BME280;36550;50.472;19.744;2023-05-13T15:23:34;98626.02;;;18.21;38.90
50302;BME280;36550;50.472;19.744;2023-05-13T15:27:18;98629.98;;;17.92;39.18
50302;BME280;36550;50.472;19.744;2023-05-13T15:30:22;98630.92;;;17.66;39.33
50302;BME280;36550;50.472;19.744;2023-05-13T15:33:07;98628.52;;;17.53;39.84
50302;BME280;36550;50.472;19.744;2023-05-13T15:36:11;98627.73;;;17.44;40.35
50302;BME280;36550;50.472;19.744;2023-05-13T15:39:55;98630.37;;;17.37;40.23
50302;BME280;36550;50.472;19.744;2023-05-13T15:43:39;98620.00;;;17.24;40.14
50302;BME280;36550;50.472;19.744;2023-05-13T15:47:22;98618.44;;;17.13;40.58
50302;BME280;36550;50.472;19.744;2023-05-13T15:51:06;98623.25;;;17.05;41.00
50302;BME280;36550;50.472;19.744;2023-05-13T15:54:50;98618.45;;;16.98;41.16
50302;BME280;36550;50.472;19.744;2023-05-13T15:58:33;98623.58;;;16.92;41.34
50302;BME280;36550;50.472;19.744;2023-05-13T16:01:57;98624.11;;;16.82;41.54
50302;BME280;36550;50.472;19.744;2023-05-13T16:05:01;98623.43;;;16.76;41.86
50302;BME280;36550;50.472;19.744;2023-05-13T16:08:25;98622.58;;;16.73;42.10
50302;BME280;36550;50.472;19.744;2023-05-13T16:12:09;98622.79;;;16.70;42.02
50302;BME280;36550;50.472;19.744;2023-05-13T16:15:53;98619.74;;;16.68;42.25
50302;BME280;36550;50.472;19.744;2023-05-13T16:18:57;98616.96;;;16.72;42.29
50302;BME280;36550;50.472;19.744;2023-05-13T16:22:46;98616.20;;;16.82;42.32
50302;BME280;36550;50.472;19.744;2023-05-13T16:26:30;98610.46;;;16.88;42.69
50302;BME280;36550;50.472;19.744;2023-05-13T16:30:14;98609.66;;;16.80;42.61
50302;BME280;36550;50.472;19.744;2023-05-13T16:33:58;98610.66;;;16.63;42.84
50302;BME280;36550;50.472;19.744;2023-05-13T16:37:42;98602.72;;;16.41;43.06
50302;BME280;36550;50.472;19.744;2023-05-13T16:41:25;98604.59;;;16.24;43.45
50302;BME280;36550;50.472;19.744;2023-05-13T16:45:09;98605.80;;;16.13;43.72
50302;BME280;36550;50.472;19.744;2023-05-13T16:48:15;98605.98;;;16.10;43.94
50302;BME280;36550;50.472;19.744;2023-05-13T16:51:59;98605.80;;;16.06;43.96
50302;BME280;36550;50.472;19.744;2023-05-13T16:55:17;98605.30;;;15.95;44.01
50302;BME280;36550;50.472;19.744;2023-05-13T16:58:57;98603.77;;;15.84;44.18
50302;BME280;36550;50.472;19.744;2023-05-13T17:02:40;98598.23;;;15.70;44.21
50302;BME280;36550;50.472;19.744;2023-05-13T17:06:24;98596.59;;;15.58;44.40
50302;BME280;36550;50.472;19.744;2023-05-13T17:09:56;98597.13;;;15.46;44.74
50302;BME280;36550;50.472;19.744;2023-05-13T17:13:41;98602.73;;;15.35;44.82
50302;BME280;36550;50.472;19.744;2023-05-13T17:17:25;98597.89;;;15.25;45.14
50302;BME280;36550;50.472;19.744;2023-05-13T17:20:45;98595.30;;;15.15;45.38
50302;BME280;36550;50.472;19.744;2023-05-13T17:23:49;98596.91;;;15.06;45.54
50302;BME280;36550;50.472;19.744;2023-05-13T17:26:53;98595.23;;;14.97;45.66
50302;BME280;36550;50.472;19.744;2023-05-13T17:30:18;98593.75;;;14.88;46.16
50302;BME280;36550;50.472;19.744;2023-05-13T17:33:57;98596.95;;;14.76;46.20
50302;BME280;36550;50.472;19.744;2023-05-13T17:37:21;98597.83;;;14.65;46.37
50302;BME280;36550;50.472;19.744;2023-05-13T17:40:29;98598.25;;;14.54;46.62